createdAt,value
2023-04-21T00:02:00.108Z,21.03
2023-04-21T00:04:30.728Z,21.13
2023-04-21T00:07:03.733Z,21.27
2023-04-21T00:09:34.476Z,19.60
2023-04-21T00:12:06.390Z,18.97
2023-04-21T00:14:43.958Z,20.00
2023-04-21T00:17:13.637Z,18.33
2023-04-21T00:19:42.336Z,19.43
2023-04-21T00:22:15.121Z,18.77
2023-04-21T00:24:44.341Z,18.50
2023-04-21T00:27:19.521Z,18.30
2023-04-21T00:29:51.913Z,18.80
2023-04-21T00:32:21.646Z,16.90
2023-04-21T00:34:52.321Z,18.77
2023-04-21T00:37:24.630Z,18.60
2023-04-21T00:39:53.241Z,19.87
2023-04-21T00:42:30.245Z,17.40
2023-04-21T00:45:12.033Z,17.17
2023-04-21T00:47:43.675Z,17.73
2023-04-21T00:50:21.261Z,16.87
2023-04-21T00:52:53.457Z,18.03
2023-04-21T00:55:22.649Z,18.30
2023-04-21T00:57:52.348Z,16.50
2023-04-21T01:00:22.731Z,19.03
2023-04-21T01:02:57.008Z,17.23
2023-04-21T01:05:29.447Z,17.73
2023-04-21T01:08:00.301Z,16.90
2023-04-21T01:10:43.390Z,17.37
2023-04-21T01:13:24.452Z,16.10
2023-04-21T01:16:03.335Z,17.33
2023-04-21T01:18:40.068Z,17.00
2023-04-21T01:21:08.978Z,16.33
2023-04-21T01:23:47.779Z,16.87
2023-04-21T01:26:28.114Z,17.03
2023-04-21T01:29:01.384Z,16.90
2023-04-21T01:31:30.304Z,17.80
2023-04-21T01:34:00.250Z,16.80
2023-04-21T01:36:32.242Z,17.23
2023-04-21T01:39:06.645Z,17.40
2023-04-21T01:41:40.629Z,17.83
2023-04-21T01:44:18.435Z,17.40
2023-04-21T01:46:50.069Z,18.27
2023-04-21T01:49:21.563Z,17.30
2023-04-21T01:51:51.236Z,17.87
2023-04-21T01:54:29.187Z,17.80
2023-04-21T01:57:06.209Z,18.53
2023-04-21T01:59:39.799Z,19.63
2023-04-21T02:02:08.607Z,18.60
2023-04-21T02:04:38.128Z,19.73
2023-04-21T02:07:10.909Z,19.73
2023-04-21T02:09:51.993Z,19.70
2023-04-21T02:12:21.126Z,18.60
2023-04-21T02:14:53.280Z,18.97
2023-04-21T02:17:23.339Z,18.83
2023-04-21T02:19:53.125Z,19.50
2023-04-21T02:22:29.587Z,20.73
2023-04-21T02:25:03.158Z,21.27
2023-04-21T02:27:33.641Z,19.80
2023-04-21T02:30:03.983Z,21.77
2023-04-21T02:32:33.872Z,19.97
2023-04-21T02:35:03.064Z,20.80
2023-04-21T02:37:34.441Z,22.07
2023-04-21T02:40:07.138Z,21.50
2023-04-21T02:42:38.038Z,20.90
2023-04-21T02:45:08.548Z,21.50
2023-04-21T02:47:37.404Z,21.37
2023-04-21T02:50:08.096Z,22.20
2023-04-21T02:52:37.875Z,19.57
2023-04-21T02:55:22.679Z,21.33
2023-04-21T02:57:56.927Z,19.43
2023-04-21T03:00:29.026Z,20.73
2023-04-21T03:02:59.808Z,20.20
2023-04-21T03:05:33.317Z,20.60
2023-04-21T03:08:09.788Z,21.53
2023-04-21T03:10:42.695Z,21.87
2023-04-21T03:13:18.670Z,21.80
2023-04-21T03:15:48.237Z,20.97
2023-04-21T03:18:20.589Z,22.13
2023-04-21T03:21:02.106Z,21.37
2023-04-21T03:23:30.214Z,30.00
2023-04-21T03:26:04.684Z,30.00
2023-04-21T03:28:36.531Z,27.40
2023-04-21T03:31:05.487Z,26.13
2023-04-21T03:33:39.577Z,24.40
2023-04-21T03:36:28.453Z,24.33
2023-04-21T03:39:12.738Z,21.47
2023-04-21T03:41:52.171Z,24.37
2023-04-21T03:44:23.359Z,20.80
2023-04-21T03:46:54.972Z,22.60
2023-04-21T03:49:26.903Z,21.17
2023-04-21T03:52:06.299Z,21.27
2023-04-21T03:54:34.359Z,22.10
2023-04-21T03:57:06.888Z,22.43
2023-04-21T03:59:36.429Z,22.23
2023-04-21T04:02:08.469Z,23.00
2023-04-21T04:04:44.784Z,22.20
2023-04-21T04:07:14.738Z,23.03
2023-04-21T04:09:51.992Z,21.93
2023-04-21T04:12:27.601Z,23.73
2023-04-21T04:14:57.078Z,23.37
2023-04-21T04:17:27.810Z,23.23
2023-04-21T04:19:58.242Z,23.13
2023-04-21T04:22:26.690Z,22.37
2023-04-21T04:25:06.123Z,21.77
2023-04-21T04:27:35.630Z,22.73
2023-04-21T04:30:05.666Z,22.50
2023-04-21T04:32:34.668Z,23.30
2023-04-21T04:35:04.600Z,22.87
2023-04-21T04:37:34.861Z,21.87
2023-04-21T04:40:13.768Z,21.53
2023-04-21T04:42:57.945Z,22.87
2023-04-21T04:45:38.499Z,23.07
2023-04-21T04:48:15.535Z,21.33
2023-04-21T04:50:46.344Z,22.93
2023-04-21T04:53:25.502Z,23.43
2023-04-21T04:55:56.901Z,23.00
2023-04-21T04:58:31.786Z,22.63
2023-04-21T05:01:12.646Z,23.10
2023-04-21T05:03:43.028Z,22.70
2023-04-21T05:06:14.139Z,20.33
2023-04-21T05:08:48.470Z,23.20
2023-04-21T05:11:19.481Z,22.73
2023-04-21T05:13:57.494Z,22.70
2023-04-21T05:16:31.037Z,21.37
2023-04-21T05:19:11.991Z,23.03
2023-04-21T05:21:42.426Z,22.10
2023-04-21T05:24:13.035Z,22.53
2023-04-21T05:26:51.106Z,23.33
2023-04-21T05:29:24.327Z,22.70
2023-04-21T05:31:54.954Z,23.90
2023-04-21T05:34:34.907Z,24.37
2023-04-21T05:37:07.121Z,24.33
2023-04-21T05:39:36.018Z,22.80
2023-04-21T05:42:06.924Z,24.53
2023-04-21T05:44:41.017Z,25.07
2023-04-21T05:47:11.418Z,24.17
2023-04-21T05:49:45.319Z,25.30
2023-04-21T05:52:23.609Z,24.93
2023-04-21T05:54:57.115Z,23.93
2023-04-21T05:57:26.103Z,24.20
2023-04-21T05:59:58.162Z,24.87
2023-04-21T06:02:29.796Z,23.30
2023-04-21T06:04:59.795Z,23.83
2023-04-21T06:07:28.586Z,24.00
2023-04-21T06:10:06.456Z,24.10
2023-04-21T06:12:37.743Z,23.90
2023-04-21T06:15:14.286Z,23.93
2023-04-21T06:17:42.899Z,23.83
2023-04-21T06:20:20.925Z,24.57
2023-04-21T06:22:56.317Z,24.97
2023-04-21T06:25:27.179Z,24.93
2023-04-21T06:27:58.308Z,25.77
2023-04-21T06:30:34.514Z,25.20
2023-04-21T06:33:12.286Z,22.63
2023-04-21T06:35:49.600Z,23.83
2023-04-21T06:38:20.279Z,23.73
2023-04-21T06:40:52.475Z,22.10
2023-04-21T06:43:21.522Z,24.17
2023-04-21T06:45:57.877Z,22.77
2023-04-21T06:48:32.520Z,19.53
2023-04-21T06:51:05.387Z,19.00
2023-04-21T06:53:50.056Z,17.30
2023-04-21T06:56:23.992Z,15.53
2023-04-21T06:58:54.680Z,16.07
2023-04-21T07:01:26.832Z,16.03
2023-04-21T07:03:57.880Z,15.20
2023-04-21T07:06:29.138Z,16.30
2023-04-21T07:09:01.503Z,17.93
2023-04-21T07:11:31.291Z,16.40
2023-04-21T07:14:02.370Z,16.37
2023-04-21T07:16:45.996Z,15.47
2023-04-21T07:19:16.310Z,14.60
2023-04-21T07:21:52.412Z,14.97
2023-04-21T07:24:24.663Z,15.33
2023-04-21T07:27:02.671Z,14.97
2023-04-21T07:29:32.057Z,14.93
2023-04-21T07:32:02.835Z,13.90
2023-04-21T07:34:42.068Z,12.30
2023-04-21T07:37:11.601Z,12.60
2023-04-21T07:39:40.041Z,12.87
2023-04-21T07:42:09.738Z,13.20
2023-04-21T07:44:39.204Z,13.53
2023-04-21T07:47:14.019Z,14.13
2023-04-21T07:49:51.092Z,13.80
2023-04-21T07:52:21.095Z,13.87
2023-04-21T07:54:54.021Z,13.03
2023-04-21T07:57:25.068Z,12.60
2023-04-21T07:59:56.631Z,11.63
2023-04-21T08:02:30.710Z,10.83
2023-04-21T08:04:59.131Z,10.23
2023-04-21T08:07:28.918Z,10.27
2023-04-21T08:10:00.702Z,9.93
2023-04-21T08:12:30.461Z,11.30
2023-04-21T08:15:05.928Z,10.30
2023-04-21T08:17:40.701Z,10.50
2023-04-21T08:20:12.923Z,10.10
2023-04-21T08:22:48.369Z,10.53
2023-04-21T08:25:22.970Z,11.20
2023-04-21T08:27:51.734Z,11.37
2023-04-21T08:30:29.460Z,10.07
2023-04-21T08:33:14.055Z,9.43
2023-04-21T08:35:59.245Z,10.10
2023-04-21T08:38:31.367Z,8.90
2023-04-21T08:41:01.162Z,8.13
2023-04-21T08:43:33.161Z,7.53
2023-04-21T08:46:11.775Z,6.80
2023-04-21T08:48:47.732Z,6.40
2023-04-21T08:51:25.589Z,6.47
2023-04-21T08:54:04.569Z,5.97
2023-04-21T08:56:33.954Z,5.50
2023-04-21T08:59:10.254Z,5.60
2023-04-21T09:02:15.184Z,5.07
2023-04-21T09:04:48.041Z,6.17
2023-04-21T09:07:36.292Z,5.90
2023-04-21T09:10:07.593Z,6.03
2023-04-21T09:12:45.406Z,6.00
2023-04-21T09:15:16.573Z,6.90
2023-04-21T09:17:49.186Z,7.03
2023-04-21T09:20:25.732Z,5.90
2023-04-21T09:22:57.661Z,5.93
2023-04-21T09:25:26.314Z,5.60
2023-04-21T09:27:56.137Z,5.87
2023-04-21T09:30:27.811Z,5.20
2023-04-21T09:33:00.318Z,3.73
2023-04-21T09:35:39.338Z,3.97
2023-04-21T09:38:25.881Z,3.67
2023-04-21T09:41:01.419Z,4.00
2023-04-21T09:43:30.784Z,4.40
2023-04-21T09:46:02.406Z,4.07
2023-04-21T09:48:41.051Z,4.10
2023-04-21T09:51:37.427Z,3.83
2023-04-21T09:56:57.730Z,3.67
2023-04-21T09:59:30.715Z,3.90
2023-04-21T10:02:03.580Z,3.70
2023-04-21T10:04:37.532Z,3.87
2023-04-21T10:07:13.626Z,4.27
2023-04-21T10:09:48.264Z,3.70
2023-04-21T10:12:19.497Z,4.33
2023-04-21T10:14:50.926Z,4.00
2023-04-21T10:17:27.899Z,3.63
2023-04-21T10:20:07.076Z,4.00
2023-04-21T10:22:42.000Z,3.97
2023-04-21T10:25:15.768Z,3.30
2023-04-21T10:27:45.387Z,4.17
2023-04-21T10:30:29.338Z,3.60
2023-04-21T10:33:05.636Z,3.90
2023-04-21T10:36:04.128Z,4.40
2023-04-21T10:38:58.058Z,3.67
2023-04-21T10:41:28.316Z,3.70
2023-04-21T10:43:59.621Z,3.17
2023-04-21T10:46:36.943Z,3.63
2023-04-21T10:49:12.893Z,4.10
2023-04-21T10:52:08.661Z,3.33
2023-04-21T10:55:07.669Z,4.03
2023-04-21T10:57:48.077Z,3.30
2023-04-21T11:00:23.080Z,4.30
2023-04-21T11:03:02.767Z,3.43
2023-04-21T11:05:38.966Z,3.60
2023-04-21T11:08:13.377Z,3.90
2023-04-21T11:11:11.096Z,3.80
2023-04-21T11:13:47.277Z,3.33
2023-04-21T11:16:20.444Z,4.07
2023-04-21T11:18:51.804Z,4.00
2023-04-21T11:21:24.810Z,4.50
2023-04-21T11:24:04.998Z,3.83
2023-04-21T11:26:45.133Z,3.70
2023-04-21T11:29:14.766Z,3.20
2023-04-21T11:31:51.371Z,3.40
2023-04-21T11:34:24.821Z,3.90
2023-04-21T11:36:55.868Z,3.90
2023-04-21T11:39:26.089Z,3.10
2023-04-21T11:41:58.754Z,3.40
2023-04-21T11:44:37.739Z,2.97
2023-04-21T11:47:23.176Z,3.67
2023-04-21T11:49:58.036Z,3.70
2023-04-21T11:52:39.473Z,4.60
2023-04-21T11:55:15.475Z,3.70
2023-04-21T11:57:56.236Z,2.90
2023-04-21T12:00:27.644Z,2.83
2023-04-21T12:02:57.601Z,3.40
2023-04-21T12:05:38.564Z,3.20
2023-04-21T12:08:09.801Z,3.10
2023-04-21T12:10:40.907Z,2.97
2023-04-21T12:13:13.521Z,3.83
2023-04-21T12:15:46.126Z,3.43
2023-04-21T12:18:24.343Z,3.20
2023-04-21T12:20:56.112Z,4.07
2023-04-21T12:23:25.259Z,3.23
2023-04-21T12:25:56.565Z,3.30
2023-04-21T12:28:38.613Z,3.47
2023-04-21T12:31:15.726Z,3.47
2023-04-21T12:33:47.345Z,3.63
2023-04-21T12:36:22.207Z,3.30
2023-04-21T12:38:54.384Z,3.40
2023-04-21T12:41:23.663Z,3.20
2023-04-21T12:43:57.618Z,3.20
2023-04-21T12:46:27.385Z,3.17
2023-04-21T12:48:58.522Z,4.10
2023-04-21T12:51:31.707Z,3.57
2023-04-21T12:54:03.227Z,3.40
2023-04-21T12:56:32.588Z,3.27
2023-04-21T12:59:12.140Z,3.10
2023-04-21T13:01:52.431Z,3.37
2023-04-21T13:04:27.479Z,3.10
2023-04-21T13:06:58.874Z,2.90
2023-04-21T13:09:33.495Z,2.83
2023-04-21T13:12:12.789Z,2.70
2023-04-21T13:14:46.556Z,2.80
2023-04-21T13:17:19.332Z,3.10
2023-04-21T13:19:50.850Z,2.83
2023-04-21T13:22:21.593Z,3.50
2023-04-21T13:24:49.633Z,2.83
2023-04-21T13:27:28.271Z,3.37
2023-04-21T13:30:03.796Z,3.27
2023-04-21T13:32:37.137Z,2.70
2023-04-21T13:35:09.268Z,3.00
2023-04-21T13:37:41.262Z,3.20
2023-04-21T13:40:14.657Z,3.20
2023-04-21T13:42:49.296Z,3.03
2023-04-21T13:45:27.361Z,3.00
2023-04-21T13:48:06.951Z,3.33
2023-04-21T13:50:35.301Z,3.63
2023-04-21T13:53:07.056Z,3.33
2023-04-21T13:55:36.702Z,3.47
2023-04-21T13:58:06.926Z,3.07
2023-04-21T14:00:44.875Z,3.27
2023-04-21T14:03:16.782Z,2.93
2023-04-21T14:05:47.312Z,3.43
2023-04-21T14:08:16.486Z,3.63
2023-04-21T14:10:55.154Z,3.80
2023-04-21T14:13:35.770Z,3.50
2023-04-21T14:16:32.013Z,2.80
2023-04-21T14:19:08.302Z,3.20
2023-04-21T14:21:37.865Z,2.97
2023-04-21T14:24:07.382Z,3.57
2023-04-21T14:26:35.801Z,2.57
2023-04-21T14:29:06.641Z,3.27
2023-04-21T14:31:36.654Z,2.90
2023-04-21T14:34:05.565Z,3.50
2023-04-21T14:36:35.790Z,2.60
2023-04-21T14:39:05.843Z,3.40
2023-04-21T14:41:37.809Z,3.20
2023-04-21T14:44:06.552Z,3.80
2023-04-21T14:46:37.464Z,3.40
2023-04-21T14:49:13.774Z,3.87
2023-04-21T14:51:43.165Z,2.90
2023-04-21T14:54:14.212Z,4.47
2023-04-21T14:56:42.262Z,4.10
2023-04-21T14:59:18.612Z,3.47
2023-04-21T15:02:08.174Z,3.23
2023-04-21T15:04:43.175Z,3.40
2023-04-21T15:07:12.739Z,3.40
2023-04-21T15:09:45.827Z,4.00
2023-04-21T15:12:25.674Z,3.23
2023-04-21T15:14:59.461Z,3.37
2023-04-21T15:17:34.121Z,3.80
2023-04-21T15:20:02.722Z,3.00
2023-04-21T15:22:32.124Z,4.30
2023-04-21T15:25:03.060Z,3.00
2023-04-21T15:27:33.491Z,3.30
2023-04-21T15:30:04.689Z,3.50
2023-04-21T15:32:51.877Z,3.57
2023-04-21T15:35:25.208Z,3.00
2023-04-21T15:38:01.941Z,3.13
2023-04-21T15:40:34.201Z,3.50
2023-04-21T15:43:03.813Z,3.90
2023-04-21T15:45:36.879Z,3.70
2023-04-21T15:48:12.153Z,3.40
2023-04-21T15:50:40.445Z,3.40
2023-04-21T15:53:10.155Z,3.90
2023-04-21T15:55:38.805Z,3.20
2023-04-21T15:58:08.462Z,3.83
2023-04-21T16:00:41.298Z,3.50
2023-04-21T16:03:25.303Z,3.90
2023-04-21T16:05:59.505Z,3.70
2023-04-21T16:08:33.407Z,3.20
2023-04-21T16:11:02.891Z,3.80
2023-04-21T16:13:34.835Z,3.90
2023-04-21T16:16:07.294Z,3.40
2023-04-21T16:18:42.254Z,3.90
2023-04-21T16:21:13.409Z,3.90
2023-04-21T16:23:41.940Z,3.77
2023-04-21T16:26:19.024Z,4.43
2023-04-21T16:29:02.228Z,3.93
2023-04-21T16:31:30.955Z,4.20
2023-04-21T16:34:00.960Z,3.83
2023-04-21T16:36:31.471Z,3.90
2023-04-21T16:39:08.716Z,3.67
2023-04-21T16:41:40.580Z,4.10
2023-04-21T16:44:18.373Z,4.50
2023-04-21T16:46:46.798Z,4.07
2023-04-21T16:49:21.321Z,4.20
2023-04-21T16:51:49.548Z,3.80
2023-04-21T16:54:21.372Z,4.20
2023-04-21T16:56:51.804Z,4.20
2023-04-21T16:59:26.412Z,3.27
2023-04-21T17:01:55.558Z,3.90
2023-04-21T17:04:33.586Z,3.97
2023-04-21T17:07:05.111Z,3.67
2023-04-21T17:09:36.847Z,3.67
2023-04-21T17:12:08.233Z,3.67
2023-04-21T17:14:39.178Z,4.00
2023-04-21T17:17:11.651Z,4.00
2023-04-21T17:19:41.948Z,3.97
2023-04-21T17:22:16.133Z,3.80
2023-04-21T17:24:53.253Z,4.40
2023-04-21T17:27:25.060Z,4.33
2023-04-21T17:29:56.890Z,4.70
2023-04-21T17:32:26.591Z,4.53
2023-04-21T17:34:59.248Z,3.67
2023-04-21T17:37:31.081Z,4.30
2023-04-21T17:40:02.868Z,4.20
2023-04-21T17:42:32.868Z,4.00
2023-04-21T17:45:19.792Z,4.33
2023-04-21T17:47:50.098Z,4.30
2023-04-21T17:50:32.848Z,3.80
2023-04-21T17:53:02.987Z,4.53
2023-04-21T17:55:32.405Z,4.60
2023-04-21T17:58:12.241Z,3.93
2023-04-21T18:00:49.649Z,4.57
2023-04-21T18:03:28.376Z,4.30
2023-04-21T18:06:02.155Z,4.90
2023-04-21T18:08:41.240Z,4.80
2023-04-21T18:11:14.611Z,4.53
2023-04-21T18:13:52.014Z,4.30
2023-04-21T18:16:23.032Z,5.30
2023-04-21T18:18:57.808Z,5.60
2023-04-21T18:21:36.461Z,5.23
2023-04-21T18:24:06.832Z,5.27
2023-04-21T18:26:44.337Z,4.93
2023-04-21T18:29:17.509Z,4.93
2023-04-21T18:31:47.739Z,4.77
2023-04-21T18:34:17.876Z,5.60
2023-04-21T18:36:50.282Z,5.07
2023-04-21T18:39:21.332Z,5.03
2023-04-21T18:42:03.611Z,5.60
2023-04-21T18:44:45.652Z,5.30
2023-04-21T18:47:21.124Z,5.50
2023-04-21T18:49:56.802Z,5.23
2023-04-21T18:52:43.427Z,5.27
2023-04-21T18:55:26.202Z,4.77
2023-04-21T18:57:56.713Z,5.10
2023-04-21T19:00:25.609Z,5.87
2023-04-21T19:02:56.896Z,5.10
2023-04-21T19:05:29.584Z,4.60
2023-04-21T19:08:10.169Z,4.97
2023-04-21T19:10:56.824Z,5.10
2023-04-21T19:13:35.343Z,5.60
2023-04-21T19:16:10.898Z,4.40
2023-04-21T19:18:50.003Z,5.67
2023-04-21T19:21:23.997Z,5.00
2023-04-21T19:24:12.405Z,4.90
2023-04-21T19:26:43.318Z,5.50
2023-04-21T19:29:18.005Z,5.70
2023-04-21T19:31:47.069Z,4.80
2023-04-21T19:34:21.097Z,5.20
2023-04-21T19:36:53.497Z,5.70
2023-04-21T19:39:35.482Z,5.37
2023-04-21T19:42:08.107Z,5.13
2023-04-21T19:44:37.703Z,5.70
2023-04-21T19:47:10.417Z,6.87
2023-04-21T19:49:43.624Z,5.47
2023-04-21T19:52:20.924Z,5.97
2023-04-21T19:54:55.938Z,5.63
2023-04-21T19:57:27.154Z,5.13
2023-04-21T19:59:58.767Z,5.50
2023-04-21T20:02:37.759Z,5.43
2023-04-21T20:05:16.241Z,6.03
2023-04-21T20:07:46.899Z,5.40
2023-04-21T20:10:25.657Z,5.80
2023-04-21T20:12:56.243Z,5.60
2023-04-21T20:15:30.093Z,5.30
2023-04-21T20:17:59.529Z,5.63
2023-04-21T20:20:28.911Z,5.13
2023-04-21T20:23:08.808Z,4.70
2023-04-21T20:25:40.387Z,4.90
2023-04-21T20:28:11.612Z,5.00
2023-04-21T20:30:44.590Z,4.60
2023-04-21T20:33:19.427Z,5.37
2023-04-21T20:35:57.075Z,4.80
2023-04-21T20:38:26.521Z,5.13
2023-04-21T20:41:02.075Z,5.67
2023-04-21T20:43:35.302Z,6.57
2023-04-21T20:46:05.504Z,5.43
2023-04-21T20:48:33.856Z,5.37
2023-04-21T20:51:06.217Z,5.30
2023-04-21T20:53:43.668Z,6.00
2023-04-21T20:56:20.395Z,6.47
2023-04-21T20:58:52.057Z,6.10
2023-04-21T21:01:20.822Z,6.27
2023-04-21T21:03:54.068Z,7.10
2023-04-21T21:06:22.843Z,6.40
2023-04-21T21:09:01.815Z,6.87
2023-04-21T21:11:41.308Z,7.70
2023-04-21T21:14:10.587Z,8.23
2023-04-21T21:16:41.001Z,8.80
2023-04-21T21:19:09.402Z,7.73
2023-04-21T21:21:40.323Z,10.40
2023-04-21T21:24:13.954Z,10.40
2023-04-21T21:26:55.274Z,9.57
2023-04-21T21:29:25.093Z,9.70
2023-04-21T21:31:53.943Z,10.93
2023-04-21T21:34:33.631Z,10.20
2023-04-21T21:37:04.059Z,10.07
2023-04-21T21:39:33.230Z,10.80
2023-04-21T21:42:08.595Z,9.47
2023-04-21T21:44:38.058Z,9.60
2023-04-21T21:47:09.300Z,9.17
2023-04-21T21:49:41.189Z,9.17
2023-04-21T21:52:10.088Z,9.60
2023-04-21T21:54:43.611Z,10.23
2023-04-21T21:57:23.038Z,10.30
2023-04-21T21:59:54.643Z,9.80
2023-04-21T22:02:24.300Z,10.57
2023-04-21T22:04:55.390Z,10.57
2023-04-21T22:07:28.128Z,11.00
2023-04-21T22:09:59.764Z,10.30
2023-04-21T22:12:32.358Z,9.40
2023-04-21T22:15:03.372Z,10.10
2023-04-21T22:17:34.669Z,10.10
2023-04-21T22:20:06.259Z,9.60
2023-04-21T22:22:37.456Z,10.30
2023-04-21T22:25:07.095Z,9.73
2023-04-21T22:27:43.277Z,10.57
2023-04-21T22:30:16.362Z,9.93
2023-04-21T22:32:47.441Z,9.83
2023-04-21T22:35:32.868Z,10.40
2023-04-21T22:38:04.034Z,9.90
2023-04-21T22:40:34.016Z,10.00
2023-04-21T22:43:07.179Z,9.70
2023-04-21T22:45:38.257Z,10.20
2023-04-21T22:48:15.184Z,10.33
2023-04-21T22:50:45.058Z,9.87
2023-04-21T22:53:28.256Z,9.80
2023-04-21T22:56:00.690Z,11.00
2023-04-21T22:58:31.689Z,10.53
2023-04-21T23:01:02.361Z,9.27
2023-04-21T23:03:33.955Z,10.80
2023-04-21T23:06:03.352Z,11.57
2023-04-21T23:08:32.193Z,11.97
2023-04-21T23:11:04.171Z,10.53
2023-04-21T23:13:36.835Z,11.07
2023-04-21T23:16:06.485Z,10.17
2023-04-21T23:18:34.603Z,10.73
2023-04-21T23:21:08.704Z,11.67
2023-04-21T23:23:37.018Z,11.47
2023-04-21T23:26:09.503Z,10.80
2023-04-21T23:28:39.337Z,11.30
2023-04-21T23:31:18.705Z,10.57
2023-04-21T23:33:47.538Z,11.70
2023-04-21T23:36:16.884Z,10.83
2023-04-21T23:38:52.582Z,11.27
2023-04-21T23:41:21.831Z,11.20
2023-04-21T23:43:54.099Z,11.07
2023-04-21T23:46:23.887Z,10.10
2023-04-21T23:48:52.760Z,10.30
2023-04-21T23:51:22.265Z,11.20
2023-04-21T23:54:03.909Z,11.23
2023-04-21T23:56:35.959Z,10.60
2023-04-21T23:59:09.205Z,10.80
